Time;durP1;ratioP1;P1;durP2;ratioP2;P2;SDS_P1;SDS_P2;PMS_P1;PMS_P2;Temp;Humidity;BMP_temperature;BMP_pressure;BME280_temperature;BME280_humidity;BME280_pressure;Samples;Min_cycle;Max_cycle;Signal;HPM_P1;HPM_P2
2023/08/13 00:01:58;;;;;;;1.50;0.82;;;19.30;99.90;19.50;100714.00;;;;4988940;27;108992;-63
2023/08/13 00:04:23;;;;;;;2.53;0.82;;;19.30;99.90;19.50;100714.00;;;;4991778;27;88011;-63
2023/08/13 00:06:49;;;;;;;1.38;1.00;;;19.30;99.90;19.50;100725.00;;;;4990555;27;116433;-63
2023/08/13 00:09:15;;;;;;;1.58;1.02;;;19.40;99.90;19.50;100714.00;;;;4990660;27;108974;-63
2023/08/13 00:11:40;;;;;;;1.75;0.80;;;19.30;99.90;19.40;100723.00;;;;4984603;27;108441;-63
2023/08/13 00:14:06;;;;;;;1.45;1.35;;;19.40;99.90;19.40;100719.00;;;;4984593;27;118231;-63
2023/08/13 00:16:32;;;;;;;4.10;1.27;;;19.30;99.90;19.40;100720.00;;;;4986995;27;89173;-63
2023/08/13 00:18:58;;;;;;;0.90;0.60;;;19.30;99.90;19.40;100719.00;;;;4989934;27;87984;-62
2023/08/13 00:21:23;;;;;;;1.77;1.15;;;19.30;99.90;19.40;100723.00;;;;4989596;27;107262;-63
2023/08/13 00:23:50;;;;;;;1.17;0.88;;;19.30;99.90;19.30;100732.00;;;;4987201;27;88635;-60
2023/08/13 00:26:15;;;;;;;1.40;0.70;;;19.30;99.90;19.30;100730.00;;;;4985112;27;89105;-63
2023/08/13 00:28:41;;;;;;;1.67;1.38;;;19.20;99.90;19.30;100738.00;;;;4983557;27;109698;-64
2023/08/13 00:31:06;;;;;;;2.75;1.02;;;19.20;99.90;19.30;100738.00;;;;4986844;27;90765;-63
2023/08/13 00:33:32;;;;;;;2.15;1.35;;;19.20;99.90;19.20;100732.00;;;;4989700;27;117458;-62
2023/08/13 00:35:58;;;;;;;1.52;0.88;;;19.10;99.90;19.20;100744.00;;;;4985998;27;116747;-62
2023/08/13 00:38:23;;;;;;;1.60;1.17;;;19.10;99.90;19.30;100743.00;;;;4986340;27;113417;-64
2023/08/13 00:40:49;;;;;;;1.38;1.25;;;19.20;99.90;19.30;100743.00;;;;4982738;27;109159;-63
2023/08/13 00:43:15;;;;;;;1.67;0.65;;;19.20;99.90;19.30;100736.00;;;;4987324;27;116298;-63
2023/08/13 00:45:41;;;;;;;1.17;0.90;;;19.20;99.90;19.30;100738.00;;;;4981319;27;117448;-64
2023/08/13 00:48:07;;;;;;;0.98;0.88;;;19.20;99.90;19.30;100749.00;;;;4985914;27;87999;-64
2023/08/13 00:50:33;;;;;;;1.48;1.38;;;19.20;99.90;19.40;100755.00;;;;4986346;27;109071;-63
2023/08/13 00:52:59;;;;;;;1.88;1.02;;;19.30;99.90;19.40;100743.00;;;;4984943;27;117044;-64
2023/08/13 00:55:25;;;;;;;1.20;1.10;;;19.30;99.90;19.40;100747.00;;;;4982077;27;117075;-64
2023/08/13 00:57:51;;;;;;;0.95;0.75;;;19.30;99.90;19.50;100745.00;;;;4984225;27;109983;-63
2023/08/13 01:00:17;;;;;;;0.75;0.70;;;19.30;99.90;19.50;100757.00;;;;4987441;27;87840;-63
2023/08/13 01:02:43;;;;;;;0.57;0.57;;;19.30;99.90;19.50;100751.00;;;;4985230;27;89080;-64
2023/08/13 01:05:09;;;;;;;0.82;0.82;;;19.40;99.90;19.50;100751.00;;;;4983756;27;117697;-65
2023/08/13 01:07:51;;;;;;;0.93;0.77;;;19.40;99.90;19.60;100759.00;;;;4981727;27;87978;-65
2023/08/13 01:10:33;;;;;;;2.88;1.15;;;19.40;99.90;19.60;100761.00;;;;4988046;27;87894;-65
2023/08/13 01:13:24;;;;;;;0.95;0.75;;;19.50;99.90;19.60;100763.00;;;;4983302;27;88868;-65
2023/08/13 01:15:53;;;;;;;3.33;1.13;;;19.50;99.90;19.60;100766.00;;;;4984315;27;88189;-65
2023/08/13 01:18:21;;;;;;;1.35;1.00;;;19.50;99.90;19.60;100770.00;;;;4984340;27;88036;-65
2023/08/13 01:20:47;;;;;;;0.70;0.70;;;19.50;99.90;19.70;100768.00;;;;4989045;27;87874;-65
2023/08/13 01:23:12;;;;;;;1.08;0.88;;;19.50;99.90;19.60;100760.00;;;;4981658;28;117724;-66
2023/08/13 01:25:51;;;;;;;2.30;1.52;;;19.50;99.90;19.60;100764.00;;;;4984290;28;114187;-66
2023/08/13 01:28:43;;;;;;;1.00;0.90;;;19.50;99.90;19.60;100765.00;;;;4988798;27;88383;-67
2023/08/13 01:31:14;;;;;;;2.20;0.63;;;19.50;99.90;19.60;100765.00;;;;4987219;27;92154;-66
2023/08/13 01:33:42;;;;;;;4.88;1.10;;;19.50;99.90;19.60;100762.00;;;;4990423;27;110679;-66
2023/08/13 01:36:09;;;;;;;0.93;0.75;;;19.50;99.90;19.60;100759.00;;;;5000007;27;87930;-66
2023/08/13 01:38:35;;;;;;;2.45;0.90;;;19.50;99.90;19.60;100772.00;;;;4986573;27;94623;-65
2023/08/13 01:41:04;;;;;;;0.93;0.82;;;19.50;99.90;19.50;100781.00;;;;4987673;27;87828;-65
2023/08/13 01:43:30;;;;;;;3.13;1.55;;;19.40;99.90;19.50;100775.00;;;;4986959;27;89072;-66
2023/08/13 01:46:00;;;;;;;1.50;0.82;;;19.40;99.90;19.50;100782.00;;;;4980909;27;89129;-67
2023/08/13 01:48:26;;;;;;;2.03;0.90;;;19.40;99.90;19.50;100776.00;;;;4985059;27;90826;-66
2023/08/13 01:50:52;;;;;;;3.17;1.10;;;19.40;99.90;19.50;100767.00;;;;4984559;27;108940;-67
2023/08/13 01:53:17;;;;;;;0.70;0.70;;;19.40;99.90;19.50;100769.00;;;;4988946;27;117693;-67
2023/08/13 01:55:43;;;;;;;2.92;0.93;;;19.40;99.90;19.50;100773.00;;;;4982749;27;115601;-67
2023/08/13 01:58:10;;;;;;;1.20;1.05;;;19.40;99.90;19.50;100766.00;;;;4984304;27;102763;-67
2023/08/13 02:00:36;;;;;;;1.55;0.82;;;18.80;99.90;19.50;100773.00;;;;4985378;27;88349;-67
2023/08/13 02:03:02;;;;;;;1.70;1.30;;;19.40;99.90;19.50;100775.00;;;;4985733;27;108336;-67
2023/08/13 02:05:27;;;;;;;0.65;0.65;;;19.40;99.90;19.50;100769.00;;;;4986194;27;88521;-68
2023/08/13 02:07:53;;;;;;;1.48;1.15;;;19.40;99.90;19.50;100769.00;;;;4985036;27;110119;-67
2023/08/13 02:10:19;;;;;;;1.00;0.80;;;19.40;99.90;19.50;100763.00;;;;4985150;27;108378;-68
2023/08/13 02:12:44;;;;;;;1.05;0.75;;;19.40;99.90;19.50;100763.00;;;;4983922;27;94140;-67
2023/08/13 02:15:10;;;;;;;1.23;0.60;;;19.40;99.90;19.50;100761.00;;;;4984938;27;102882;-67
2023/08/13 02:17:36;;;;;;;1.73;1.10;;;19.40;99.90;19.40;100771.00;;;;4984209;27;109969;-68
2023/08/13 02:20:02;;;;;;;1.27;1.17;;;19.30;99.90;19.40;100779.00;;;;4984239;28;108336;-67
2023/08/13 02:22:43;;;;;;;3.13;0.77;;;19.30;99.90;19.40;100785.00;;;;4984827;28;106572;-68
2023/08/13 02:25:09;;;;;;;1.98;0.98;;;19.30;99.90;19.30;100789.00;;;;4983848;27;116603;-67
2023/08/13 02:27:34;;;;;;;0.63;0.47;;;19.30;99.90;19.30;100790.00;;;;4982599;28;87938;-68
2023/08/13 02:30:01;;;;;;;1.02;0.80;;;19.30;99.90;19.30;100802.00;;;;4984746;27;108037;-67
2023/08/13 02:32:26;;;;;;;1.67;1.08;;;19.30;99.90;19.40;100798.00;;;;4983323;27;107135;-67
2023/08/13 02:34:52;;;;;;;0.60;0.60;;;19.20;99.90;19.30;100797.00;;;;4980498;27;117085;-67
2023/08/13 02:37:18;;;;;;;0.68;0.63;;;19.30;99.90;19.40;100795.00;;;;4984565;27;110283;-67
2023/08/13 02:39:43;;;;;;;1.75;1.33;;;19.30;99.90;19.30;100799.00;;;;4984650;27;109084;-67
2023/08/13 02:42:09;;;;;;;2.42;0.90;;;19.30;99.90;19.30;100798.00;;;;4984820;27;116103;-68
2023/08/13 02:44:34;;;;;;;1.52;0.95;;;19.30;99.90;19.30;100793.00;;;;4988626;27;115508;-67
2023/08/13 02:47:00;;;;;;;0.95;0.70;;;19.20;99.90;19.30;100802.00;;;;4985844;27;110505;-67
2023/08/13 02:49:26;;;;;;;1.88;0.90;;;19.20;99.90;19.30;100804.00;;;;4989823;27;108090;-67
2023/08/13 02:51:51;;;;;;;1.58;1.02;;;19.20;99.90;19.30;100804.00;;;;4985918;28;116855;-67
2023/08/13 02:54:17;;;;;;;1.42;0.98;;;19.20;99.90;19.30;100802.00;;;;4985906;27;116798;-67
2023/08/13 02:56:43;;;;;;;2.65;0.90;;;19.20;99.90;19.20;100800.00;;;;4986887;27;109656;-67
2023/08/13 02:59:09;;;;;;;0.68;0.50;;;19.20;99.90;19.20;100815.00;;;;4987785;27;109819;-67
2023/08/13 03:01:34;;;;;;;1.13;1.02;;;19.10;99.90;19.10;100808.00;;;;4989183;27;87410;-67
2023/08/13 03:04:03;;;;;;;1.80;1.05;;;19.10;99.90;19.10;100813.00;;;;4988403;27;117827;-67
2023/08/13 03:06:29;;;;;;;3.33;1.20;;;19.10;99.90;19.10;100812.00;;;;4994357;27;87680;-67
2023/08/13 03:08:55;;;;;;;1.27;0.85;;;19.00;99.90;19.10;100805.00;;;;4987358;27;108337;-67
2023/08/13 03:11:21;;;;;;;0.73;0.70;;;19.00;99.90;19.00;100803.00;;;;4986799;28;117827;-67
2023/08/13 03:13:47;;;;;;;1.67;1.02;;;19.00;99.90;19.10;100806.00;;;;4987586;27;116930;-67
2023/08/13 03:16:13;;;;;;;1.20;0.98;;;19.00;99.90;19.00;100810.00;;;;4989038;27;87974;-68
2023/08/13 03:18:40;;;;;;;1.27;1.17;;;18.90;99.90;19.00;100816.00;;;;4988281;27;94411;-67
2023/08/13 03:21:06;;;;;;;1.42;1.17;;;18.90;99.90;19.00;100817.00;;;;4987178;28;88592;-67
2023/08/13 03:23:32;;;;;;;2.17;1.05;;;18.90;99.90;19.00;100811.00;;;;4988356;28;118814;-68
2023/08/13 03:25:59;;;;;;;1.35;1.25;;;18.90;99.90;19.00;100809.00;;;;4991318;27;87079;-67
2023/08/13 03:28:24;;;;;;;2.20;1.27;;;18.90;99.90;19.00;100802.00;;;;4986675;27;87990;-67
2023/08/13 03:30:57;;;;;;;1.25;1.15;;;18.90;99.90;19.00;100809.00;;;;4988413;27;118981;-67
2023/08/13 03:33:22;;;;;;;2.53;0.73;;;18.90;99.90;19.00;100812.00;;;;4989718;27;102975;-67
2023/08/13 03:35:48;;;;;;;1.02;1.02;;;18.90;99.90;19.00;100807.00;;;;4991082;27;110397;-67
2023/08/13 03:38:14;;;;;;;1.10;1.00;;;18.90;99.90;19.00;100806.00;;;;4989143;27;105881;-67
2023/08/13 03:40:39;;;;;;;2.08;1.55;;;18.90;99.90;19.00;100812.00;;;;4991185;27;117726;-67
2023/08/13 03:43:05;;;;;;;2.22;1.13;;;18.90;99.90;19.00;100816.00;;;;4985420;27;109759;-67
2023/08/13 03:45:31;;;;;;;2.00;1.35;;;18.90;99.90;19.00;100807.00;;;;4987638;27;105906;-67
2023/08/13 03:47:56;;;;;;;1.60;0.77;;;18.90;99.90;19.00;100812.00;;;;4985591;27;107934;-67
2023/08/13 03:50:22;;;;;;;1.40;1.23;;;18.90;99.90;19.00;100809.00;;;;4985932;27;114171;-67
2023/08/13 03:52:48;;;;;;;1.30;1.20;;;18.80;99.90;19.00;100815.00;;;;4987915;27;90745;-67
2023/08/13 03:55:13;;;;;;;1.20;1.10;;;18.90;99.90;18.90;100824.00;;;;4987461;27;111447;-67
2023/08/13 03:57:39;;;;;;;1.20;1.10;;;18.90;99.90;18.90;100824.00;;;;4986590;27;109137;-67
2023/08/13 04:00:06;;;;;;;1.13;1.02;;;18.80;99.90;18.90;100822.00;;;;4981285;27;116740;-68
2023/08/13 04:02:38;;;;;;;2.67;1.55;;;18.80;99.90;18.90;100822.00;;;;4984658;27;90924;-67
2023/08/13 04:05:07;;;;;;;1.80;1.23;;;18.80;99.90;18.90;100820.00;;;;4987017;27;87722;-67
2023/08/13 04:07:32;;;;;;;2.97;1.92;;;18.80;99.90;19.00;100831.00;;;;4987678;27;107515;-67
2023/08/13 04:09:58;;;;;;;1.88;1.38;;;18.90;99.90;19.00;100828.00;;;;4988075;27;117642;-67
2023/08/13 04:12:24;;;;;;;1.65;1.15;;;18.90;99.90;19.00;100830.00;;;;4987940;27;118845;-67
2023/08/13 04:14:49;;;;;;;0.95;0.88;;;18.90;99.90;19.10;100828.00;;;;4986396;27;109794;-67
2023/08/13 04:17:15;;;;;;;1.77;0.98;;;18.90;99.90;19.10;100827.00;;;;4985109;27;108102;-67
2023/08/13 04:19:41;;;;;;;1.23;0.90;;;19.00;99.90;19.10;100827.00;;;;4988722;27;117600;-67
2023/08/13 04:22:06;;;;;;;2.08;1.45;;;19.00;99.90;19.20;100836.00;;;;4985508;27;116923;-67
2023/08/13 04:24:32;;;;;;;1.30;1.20;;;19.10;99.90;19.20;100826.00;;;;4984365;27;111713;-67
2023/08/13 04:26:58;;;;;;;2.28;0.90;;;19.10;99.90;19.30;100835.00;;;;4989115;27;110366;-67
2023/08/13 04:29:23;;;;;;;1.38;1.08;;;19.10;99.90;19.30;100820.00;;;;4988009;27;87981;-67
2023/08/13 04:31:49;;;;;;;1.00;1.00;;;19.20;99.90;19.30;100837.00;;;;4983217;27;117249;-67
2023/08/13 04:34:14;;;;;;;1.90;1.45;;;19.20;99.90;19.40;100832.00;;;;4985605;27;110419;-66
2023/08/13 04:36:40;;;;;;;2.03;1.52;;;19.30;99.90;19.40;100836.00;;;;4986595;27;108222;-65
2023/08/13 04:39:06;;;;;;;2.03;1.45;;;19.30;99.90;19.40;100835.00;;;;4987671;27;87283;-65
2023/08/13 04:41:32;;;;;;;1.92;1.52;;;19.30;99.90;19.50;100845.00;;;;4988139;27;116224;-65
2023/08/13 04:43:57;;;;;;;2.20;1.25;;;19.30;99.90;19.50;100851.00;;;;4989478;27;110072;-65
2023/08/13 04:46:23;;;;;;;1.77;1.35;;;19.40;99.90;19.50;100851.00;;;;4989173;28;88475;-66
2023/08/13 04:48:49;;;;;;;1.45;1.20;;;19.40;99.90;19.50;100845.00;;;;4983817;27;117339;-65
2023/08/13 04:51:15;;;;;;;1.67;1.58;;;19.40;99.90;19.50;100861.00;;;;4984541;27;117303;-65
2023/08/13 04:53:41;;;;;;;1.52;1.42;;;19.40;99.90;19.60;100861.00;;;;4987345;27;109602;-65
2023/08/13 04:56:07;;;;;;;1.48;1.13;;;19.40;99.90;19.60;100857.00;;;;4989143;27;88063;-65
2023/08/13 04:58:34;;;;;;;3.33;1.33;;;19.50;99.90;19.70;100851.00;;;;4983597;27;117665;-65
2023/08/13 05:01:01;;;;;;;1.58;1.13;;;19.50;99.90;19.70;100863.00;;;;4984074;28;89149;-65
2023/08/13 05:03:27;;;;;;;1.17;1.05;;;19.50;99.90;19.70;100859.00;;;;4987726;28;98434;-65
2023/08/13 05:05:53;;;;;;;1.60;1.17;;;19.60;99.90;19.70;100853.00;;;;4986587;28;109068;-65
2023/08/13 05:08:18;;;;;;;1.17;1.08;;;19.60;99.90;19.80;100855.00;;;;4985947;27;89037;-66
2023/08/13 05:10:45;;;;;;;1.42;0.95;;;19.60;99.90;19.80;100857.00;;;;4988027;27;117092;-66
2023/08/13 05:13:13;;;;;;;2.40;1.33;;;19.60;99.90;19.80;100853.00;;;;4988826;27;101931;-65
2023/08/13 05:15:39;;;;;;;1.27;1.13;;;19.70;99.90;19.90;100850.00;;;;4987434;27;87623;-65
2023/08/13 05:18:05;;;;;;;5.25;1.40;;;19.70;99.90;19.90;100858.00;;;;4985812;27;117754;-65
2023/08/13 05:20:31;;;;;;;4.47;1.30;;;19.80;99.90;20.00;100860.00;;;;4988472;27;92004;-65
2023/08/13 05:22:57;;;;;;;3.42;1.80;;;19.80;99.90;20.10;100873.00;;;;4987389;27;87964;-65
2023/08/13 05:25:23;;;;;;;1.50;1.30;;;19.90;99.90;20.10;100864.00;;;;4989357;27;87885;-66
2023/08/13 05:27:48;;;;;;;1.08;1.00;;;19.90;99.90;20.10;100866.00;;;;4990090;27;117307;-65
2023/08/13 05:30:14;;;;;;;1.65;1.55;;;20.00;99.90;20.20;100873.00;;;;4985971;27;114377;-65
2023/08/13 05:32:40;;;;;;;2.85;1.17;;;20.00;99.90;20.20;100869.00;;;;4989714;27;109882;-65
2023/08/13 05:35:06;;;;;;;1.23;1.05;;;20.10;99.90;20.30;100879.00;;;;4982854;27;88884;-65
2023/08/13 05:37:32;;;;;;;1.73;1.02;;;20.10;99.90;20.30;100875.00;;;;4984095;27;99074;-65
2023/08/13 05:39:58;;;;;;;1.00;0.70;;;20.20;99.90;20.40;100878.00;;;;4985195;27;118113;-64
2023/08/13 05:42:23;;;;;;;1.42;1.33;;;20.20;99.90;20.50;100865.00;;;;4985622;27;101274;-66
2023/08/13 05:44:49;;;;;;;3.75;1.70;;;20.30;99.90;20.50;100872.00;;;;4987409;27;108995;-64
2023/08/13 05:47:15;;;;;;;1.58;1.05;;;20.30;99.90;20.60;100864.00;;;;4982706;27;117293;-64
2023/08/13 05:49:40;;;;;;;1.15;0.95;;;20.40;99.90;20.60;100864.00;;;;4984519;27;117779;-64
2023/08/13 05:52:06;;;;;;;1.42;1.10;;;20.50;99.90;20.70;100857.00;;;;4987300;27;111002;-64
2023/08/13 05:54:31;;;;;;;1.58;1.48;;;20.50;99.90;20.70;100866.00;;;;4982354;28;108061;-64
2023/08/13 05:56:57;;;;;;;1.80;1.38;;;20.50;99.90;20.80;100865.00;;;;4984470;27;110182;-65
2023/08/13 05:59:23;;;;;;;1.35;1.15;;;20.60;99.90;20.80;100871.00;;;;4984225;27;117544;-65
2023/08/13 06:01:49;;;;;;;2.90;1.60;;;20.60;99.90;20.90;100865.00;;;;4986729;27;110428;-65
2023/08/13 06:04:14;;;;;;;1.27;1.15;;;20.70;99.90;21.00;100870.00;;;;4986520;28;87944;-65
2023/08/13 06:06:40;;;;;;;1.13;0.60;;;20.80;99.90;21.10;100872.00;;;;4988635;27;118459;-66
2023/08/13 06:09:06;;;;;;;1.25;1.15;;;20.90;99.90;21.20;100881.00;;;;4983872;27;117392;-64
2023/08/13 06:11:32;;;;;;;0.90;0.90;;;21.00;99.90;21.30;100877.00;;;;4989280;27;111831;-65
2023/08/13 06:13:58;;;;;;;1.75;1.45;;;21.10;99.90;21.40;100879.00;;;;4986676;27;87936;-65
2023/08/13 06:16:24;;;;;;;2.83;1.00;;;21.10;99.90;21.50;100887.00;;;;4992622;27;102303;-65
2023/08/13 06:18:49;;;;;;;2.22;1.10;;;21.30;99.90;21.60;100885.00;;;;4987259;27;87969;-65
2023/08/13 06:21:15;;;;;;;2.65;1.65;;;21.40;99.90;21.90;100887.00;;;;4987507;27;110462;-64
2023/08/13 06:23:41;;;;;;;4.00;1.83;;;21.60;99.90;22.20;100891.00;;;;4990963;27;88880;-65
2023/08/13 06:26:06;;;;;;;2.38;1.52;;;21.90;99.90;22.30;100879.00;;;;4992756;27;116203;-66
2023/08/13 06:28:33;;;;;;;1.35;1.23;;;22.10;99.90;22.40;100881.00;;;;4988140;27;116607;-65
2023/08/13 06:31:00;;;;;;;1.17;0.93;;;22.20;99.90;22.50;100893.00;;;;4991695;27;91309;-67
2023/08/13 06:33:25;;;;;;;1.60;1.48;;;22.40;99.90;22.70;100894.00;;;;4988265;27;88163;-65
2023/08/13 06:35:51;;;;;;;2.22;1.05;;;22.40;99.90;22.80;100893.00;;;;4988986;27;99797;-65
2023/08/13 06:38:17;;;;;;;2.67;1.50;;;22.60;99.90;22.90;100899.00;;;;4988944;27;89060;-65
2023/08/13 06:40:44;;;;;;;2.65;1.17;;;22.60;99.90;23.00;100911.00;;;;4987065;27;109871;-64
2023/08/13 06:43:11;;;;;;;2.20;1.08;;;22.80;99.90;23.10;100903.00;;;;4989645;27;87930;-65
2023/08/13 06:45:37;;;;;;;0.82;0.82;;;22.90;99.90;23.20;100904.00;;;;4986335;27;88540;-65
2023/08/13 06:48:04;;;;;;;0.80;0.75;;;22.90;99.90;23.30;100903.00;;;;4984109;27;102716;-64
2023/08/13 06:50:30;;;;;;;1.10;1.10;;;23.00;99.90;23.30;100905.00;;;;4984238;27;87799;-65
2023/08/13 06:52:56;;;;;;;1.20;1.02;;;23.10;99.90;23.30;100913.00;;;;4983476;27;88234;-65
2023/08/13 06:55:23;;;;;;;1.20;1.10;;;23.10;99.90;23.30;100911.00;;;;4984513;27;104340;-65
2023/08/13 06:57:49;;;;;;;2.13;1.08;;;23.20;99.90;23.30;100909.00;;;;4984431;27;103510;-64
2023/08/13 07:00:15;;;;;;;1.15;0.88;;;23.00;99.90;23.30;100907.00;;;;4983217;27;108945;-65
2023/08/13 07:02:41;;;;;;;1.15;1.02;;;23.20;99.90;23.40;100903.00;;;;4984337;27;89352;-65
2023/08/13 07:05:11;;;;;;;1.67;1.35;;;23.00;99.90;23.40;100910.00;;;;4984927;27;87627;-65
2023/08/13 07:07:36;;;;;;;0.88;0.85;;;23.20;99.90;23.50;100907.00;;;;4986791;27;88103;-66
2023/08/13 07:10:04;;;;;;;0.68;0.68;;;23.30;99.90;23.60;100901.00;;;;4982516;27;110619;-64
2023/08/13 07:12:29;;;;;;;1.23;0.75;;;23.20;99.90;23.70;100898.00;;;;4986486;27;89002;-66
2023/08/13 07:14:55;;;;;;;1.98;0.98;;;23.40;99.90;23.80;100904.00;;;;4979330;28;115752;-65
2023/08/13 07:17:21;;;;;;;1.33;1.23;;;23.50;99.90;23.90;100910.00;;;;4982801;27;88935;-65
2023/08/13 07:19:48;;;;;;;1.27;0.77;;;23.70;99.90;24.10;100907.00;;;;4982364;27;109840;-66
2023/08/13 07:22:14;;;;;;;0.70;0.70;;;23.80;99.90;24.10;100906.00;;;;4984317;27;100939;-66
2023/08/13 07:24:40;;;;;;;1.80;1.38;;;23.90;99.90;24.10;100901.00;;;;4981311;27;117100;-65
2023/08/13 07:27:05;;;;;;;1.58;1.48;;;23.90;99.90;24.20;100895.00;;;;4983151;27;118342;-65
2023/08/13 07:29:31;;;;;;;1.10;0.90;;;24.20;99.90;24.30;100904.00;;;;4986396;27;111273;-64
2023/08/13 07:31:57;;;;;;;1.73;1.00;;;24.10;99.90;24.60;100909.00;;;;4980398;27;109655;-65
2023/08/13 07:34:22;;;;;;;2.13;1.30;;;24.30;99.90;24.80;100900.00;;;;4983036;27;88429;-65
2023/08/13 07:36:52;;;;;;;1.85;0.88;;;24.50;99.90;25.00;100901.00;;;;4983732;27;115836;-65
2023/08/13 07:39:22;;;;;;;1.10;0.85;;;24.70;99.90;25.20;100910.00;;;;4981718;27;88178;-65
2023/08/13 07:41:49;;;;;;;1.73;1.05;;;24.90;99.90;25.30;100909.00;;;;4986265;27;87973;-65
2023/08/13 07:44:15;;;;;;;1.65;0.85;;;25.00;99.90;25.50;100903.00;;;;4981781;27;88767;-64
2023/08/13 07:46:41;;;;;;;1.10;0.60;;;25.20;99.90;25.70;100903.00;;;;4984474;27;110799;-64
2023/08/13 07:49:07;;;;;;;1.80;0.90;;;25.40;99.90;26.00;100920.00;;;;4988282;27;110522;-64
2023/08/13 07:51:33;;;;;;;0.90;0.90;;;25.60;99.90;26.10;100918.00;;;;4988219;27;87765;-65
2023/08/13 07:53:59;;;;;;;0.52;0.50;;;25.80;99.90;26.30;100919.00;;;;4985995;27;110913;-64
2023/08/13 07:56:25;;;;;;;5.18;1.00;;;26.00;99.90;26.40;100922.00;;;;4988411;27;105715;-65
2023/08/13 07:58:50;;;;;;;0.95;0.63;;;26.10;99.90;26.50;100925.00;;;;4984059;27;110446;-66
2023/08/13 08:01:17;;;;;;;0.95;0.85;;;26.20;99.90;26.60;100923.00;;;;4979768;27;95628;-65
2023/08/13 08:03:44;;;;;;;0.50;0.50;;;26.30;99.90;26.80;100929.00;;;;4986696;27;88801;-66
2023/08/13 08:06:12;;;;;;;2.70;0.85;;;26.50;99.90;26.90;100924.00;;;;4984835;27;88571;-65
2023/08/13 08:08:38;;;;;;;0.63;0.63;;;26.60;99.90;27.10;100921.00;;;;4983298;27;88067;-65
2023/08/13 08:11:03;;;;;;;0.52;0.52;;;26.80;99.90;27.30;100915.00;;;;4989658;27;102560;-64
2023/08/13 08:13:31;;;;;;;0.70;0.40;;;27.00;99.90;27.40;100929.00;;;;4983053;27;118530;-66
2023/08/13 08:15:57;;;;;;;1.75;1.02;;;27.10;99.90;27.60;100935.00;;;;4985592;27;88181;-66
2023/08/13 08:18:28;;;;;;;0.47;0.47;;;27.30;99.90;27.80;100937.00;;;;4983528;28;111331;-66
2023/08/13 08:20:53;;;;;;;1.30;0.95;;;27.50;99.90;28.00;100930.00;;;;4984972;27;87734;-65
2023/08/13 08:23:19;;;;;;;5.35;0.55;;;27.70;99.90;28.10;100931.00;;;;4982212;27;111194;-66
2023/08/13 08:25:44;;;;;;;1.02;0.40;;;27.80;99.90;28.20;100929.00;;;;4982591;27;116518;-65
2023/08/13 08:28:11;;;;;;;0.68;0.50;;;27.90;99.90;28.30;100936.00;;;;4979765;27;110273;-65
2023/08/13 08:30:37;;;;;;;0.95;0.50;;;28.00;99.90;28.40;100924.00;;;;4982616;27;100691;-65
2023/08/13 08:33:03;;;;;;;1.08;0.50;;;28.10;99.90;28.50;100931.00;;;;4980994;27;107678;-64
2023/08/13 08:35:28;;;;;;;0.63;0.50;;;28.20;99.90;28.60;100924.00;;;;4982285;27;107164;-65
2023/08/13 08:37:54;;;;;;;0.93;0.65;;;28.30;99.90;28.80;100923.00;;;;4982819;27;109507;-65
2023/08/13 08:40:20;;;;;;;1.23;0.63;;;28.40;99.90;28.90;100918.00;;;;4982580;28;109304;-65
2023/08/13 08:42:46;;;;;;;0.85;0.55;;;28.60;99.90;29.00;100925.00;;;;4980260;28;116663;-65
2023/08/13 08:45:16;;;;;;;1.55;0.43;;;28.70;99.90;29.10;100918.00;;;;4984766;28;91085;-65
2023/08/13 08:47:43;;;;;;;0.50;0.50;;;28.80;99.80;29.20;100919.00;;;;4985185;27;92092;-65
2023/08/13 08:50:13;;;;;;;0.85;0.60;;;28.90;98.00;29.30;100916.00;;;;4980842;27;108705;-65
2023/08/13 08:52:39;;;;;;;0.50;0.50;;;28.90;98.10;29.40;100919.00;;;;4983042;27;88560;-65
2023/08/13 08:55:06;;;;;;;0.50;0.50;;;29.00;97.50;29.60;100920.00;;;;4981908;27;88249;-65
2023/08/13 08:57:32;;;;;;;0.50;0.50;;;29.20;96.40;29.60;100915.00;;;;4984930;27;101777;-65
2023/08/13 08:59:59;;;;;;;0.85;0.50;;;29.20;94.50;29.40;100913.00;;;;4984565;28;87845;-66
2023/08/13 09:02:25;;;;;;;0.20;0.20;;;29.10;94.00;29.40;100908.00;;;;4985545;27;98037;-65
2023/08/13 09:04:51;;;;;;;0.95;0.57;;;29.00;93.70;29.50;100912.00;;;;4982468;27;116336;-65
2023/08/13 09:07:16;;;;;;;0.52;0.52;;;29.10;93.70;29.70;100904.00;;;;4983579;27;87164;-65
2023/08/13 09:09:44;;;;;;;2.00;0.50;;;29.20;93.80;29.90;100911.00;;;;4983824;27;109240;-65
2023/08/13 09:12:10;;;;;;;3.67;1.08;;;29.50;93.20;30.10;100914.00;;;;4987871;28;88197;-66
2023/08/13 09:14:35;;;;;;;0.93;0.30;;;29.70;92.60;30.30;100907.00;;;;4985036;27;89196;-64
2023/08/13 09:17:01;;;;;;;0.57;0.55;;;29.90;92.20;30.60;100899.00;;;;4983760;27;110444;-64
2023/08/13 09:19:28;;;;;;;0.50;0.50;;;30.10;90.10;30.60;100897.00;;;;4984950;27;108800;-64
2023/08/13 09:22:00;;;;;;;1.35;0.77;;;30.20;89.40;30.90;100902.00;;;;4985939;27;88872;-65
2023/08/13 09:24:43;;;;;;;0.20;0.20;;;30.40;89.70;31.20;100905.00;;;;4981429;27;105786;-65
2023/08/13 09:27:09;;;;;;;0.70;0.47;;;30.70;89.30;31.50;100907.00;;;;4985770;27;87982;-65
2023/08/13 09:29:36;;;;;;;0.68;0.55;;;30.90;87.80;31.70;100899.00;;;;4980046;28;108456;-66
2023/08/13 09:32:03;;;;;;;0.30;0.30;;;31.20;86.60;31.80;100908.00;;;;4979541;27;103478;-66
2023/08/13 09:34:30;;;;;;;0.52;0.52;;;31.30;84.90;31.90;100909.00;;;;4983400;28;87960;-66
2023/08/13 09:36:57;;;;;;;0.40;0.30;;;31.50;82.20;31.90;100906.00;;;;4981946;27;87817;-66
2023/08/13 09:39:26;;;;;;;0.68;0.30;;;31.50;80.80;32.00;100915.00;;;;4985537;27;88894;-65
2023/08/13 09:41:53;;;;;;;0.40;0.38;;;31.60;80.50;32.10;100918.00;;;;4979479;27;104950;-65
2023/08/13 09:44:21;;;;;;;1.00;0.50;;;31.60;79.60;32.20;100904.00;;;;4982427;27;88768;-66
2023/08/13 09:47:08;;;;;;;0.40;0.40;;;31.80;79.30;32.40;100919.00;;;;4981455;27;88258;-67
2023/08/13 09:49:34;;;;;;;0.93;0.73;;;31.90;79.20;32.60;100912.00;;;;4985361;27;98636;-65
2023/08/13 09:52:08;;;;;;;0.90;0.30;;;32.10;76.50;32.70;100911.00;;;;4982619;27;87861;-66
2023/08/13 09:55:16;;;;;;;0.43;0.43;;;32.20;74.80;32.70;100913.00;;;;4982769;27;88723;-68
2023/08/13 09:57:44;;;;;;;0.55;0.47;;;32.30;74.00;32.70;100909.00;;;;4985209;27;87234;-67
2023/08/13 10:00:12;;;;;;;1.42;0.57;;;32.30;73.20;32.90;100916.00;;;;4980302;27;98839;-67
2023/08/13 10:02:42;;;;;;;0.50;0.47;;;32.40;73.50;33.00;100912.00;;;;4983106;27;89178;-66
2023/08/13 10:05:08;;;;;;;0.22;0.22;;;32.50;72.00;33.20;100915.00;;;;4978765;27;88937;-67
2023/08/13 10:07:36;;;;;;;0.88;0.43;;;32.60;70.30;33.30;100915.00;;;;4983234;27;87838;-66
2023/08/13 10:10:03;;;;;;;0.55;0.40;;;32.70;69.50;33.30;100914.00;;;;4986030;27;88006;-68
2023/08/13 10:12:30;;;;;;;1.15;0.95;;;33.30;69.10;33.30;100917.00;;;;4983350;27;88468;-67
2023/08/13 10:14:57;;;;;;;0.32;0.32;;;32.80;68.20;33.30;100914.00;;;;4982689;27;88097;-69
2023/08/13 10:17:26;;;;;;;0.40;0.40;;;32.80;67.80;33.30;100908.00;;;;4982073;27;87821;-67
2023/08/13 10:19:55;;;;;;;0.60;0.52;;;32.80;67.00;33.40;100920.00;;;;4981660;27;88162;-69
2023/08/13 10:22:32;;;;;;;0.50;0.50;;;32.80;66.90;33.40;100919.00;;;;4982105;27;105343;-68
2023/08/13 10:24:59;;;;;;;1.85;1.05;;;32.80;66.80;33.50;100926.00;;;;4980612;27;108679;-68
2023/08/13 10:27:26;;;;;;;0.65;0.40;;;32.90;66.30;33.50;100925.00;;;;4978152;27;88111;-68
2023/08/13 10:30:09;;;;;;;0.50;0.43;;;33.00;65.60;33.60;100924.00;;;;4979813;27;89015;-68
2023/08/13 10:32:57;;;;;;;0.68;0.68;;;33.00;64.70;33.80;100917.00;;;;4985614;27;88351;-69
2023/08/13 10:35:40;;;;;;;0.30;0.22;;;33.10;64.80;34.10;100909.00;;;;4983961;27;89187;-68
2023/08/13 10:38:10;;;;;;;2.35;0.55;;;33.40;64.00;34.30;100911.00;;;;4987333;27;87596;-69
2023/08/13 10:40:36;;;;;;;1.45;0.95;;;33.80;63.00;34.50;100910.00;;;;4986345;27;88751;-69
2023/08/13 10:43:04;;;;;;;0.80;0.50;;;33.80;62.30;34.60;100912.00;;;;4986182;28;88498;-69